sensor_id;sensor_type;location;lat;lon;timestamp;P1;durP1;ratioP1;P2;durP2;ratioP2
64932;SDS011;51446;53.850;10.662;2022-11-13T00:01:24;22.20;;;14.67;;
64932;SDS011;51446;53.850;10.662;2022-11-13T00:03:50;22.42;;;14.23;;
64932;SDS011;51446;53.850;10.662;2022-11-13T00:06:16;21.37;;;14.60;;
64932;SDS011;51446;53.850;10.662;2022-11-13T00:08:43;19.98;;;14.40;;
64932;SDS011;51446;53.850;10.662;2022-11-13T00:11:10;21.77;;;13.88;;
64932;SDS011;51446;53.850;10.662;2022-11-13T00:13:43;20.17;;;14.00;;
64932;SDS011;51446;53.850;10.662;2022-11-13T00:16:10;20.50;;;13.35;;
64932;SDS011;51446;53.850;10.662;2022-11-13T00:18:37;17.85;;;13.40;;
64932;SDS011;51446;53.850;10.662;2022-11-13T00:21:07;20.10;;;13.57;;
64932;SDS011;51446;53.850;10.662;2022-11-13T00:23:35;24.47;;;14.67;;
64932;SDS011;51446;53.850;10.662;2022-11-13T00:26:05;21.30;;;13.48;;
64932;SDS011;51446;53.850;10.662;2022-11-13T00:28:41;21.58;;;13.90;;
64932;SDS011;51446;53.850;10.662;2022-11-13T00:31:07;20.20;;;13.63;;
64932;SDS011;51446;53.850;10.662;2022-11-13T00:33:34;22.33;;;13.53;;
64932;SDS011;51446;53.850;10.662;2022-11-13T00:36:00;20.85;;;13.85;;
64932;SDS011;51446;53.850;10.662;2022-11-13T00:38:29;23.40;;;14.20;;
64932;SDS011;51446;53.850;10.662;2022-11-13T00:40:54;19.58;;;13.15;;
64932;SDS011;51446;53.850;10.662;2022-11-13T00:43:20;22.37;;;14.30;;
64932;SDS011;51446;53.850;10.662;2022-11-13T00:45:45;20.23;;;14.10;;
64932;SDS011;51446;53.850;10.662;2022-11-13T00:48:10;20.33;;;13.97;;
64932;SDS011;51446;53.850;10.662;2022-11-13T00:50:36;21.17;;;13.33;;
64932;SDS011;51446;53.850;10.662;2022-11-13T00:53:01;23.00;;;15.03;;
64932;SDS011;51446;53.850;10.662;2022-11-13T00:55:26;18.77;;;13.50;;
64932;SDS011;51446;53.850;10.662;2022-11-13T00:57:52;24.97;;;14.47;;
64932;SDS011;51446;53.850;10.662;2022-11-13T01:00:17;23.63;;;15.33;;
64932;SDS011;51446;53.850;10.662;2022-11-13T01:02:42;27.80;;;15.35;;
64932;SDS011;51446;53.850;10.662;2022-11-13T01:05:08;23.50;;;15.10;;
64932;SDS011;51446;53.850;10.662;2022-11-13T01:07:34;22.90;;;15.77;;
64932;SDS011;51446;53.850;10.662;2022-11-13T01:10:01;24.10;;;15.20;;
64932;SDS011;51446;53.850;10.662;2022-11-13T01:12:28;24.23;;;15.23;;
64932;SDS011;51446;53.850;10.662;2022-11-13T01:14:54;21.65;;;14.32;;
64932;SDS011;51446;53.850;10.662;2022-11-13T01:17:19;24.10;;;14.77;;
64932;SDS011;51446;53.850;10.662;2022-11-13T01:19:44;26.67;;;15.90;;
64932;SDS011;51446;53.850;10.662;2022-11-13T01:22:09;25.33;;;15.45;;
64932;SDS011;51446;53.850;10.662;2022-11-13T01:24:35;21.25;;;15.05;;
64932;SDS011;51446;53.850;10.662;2022-11-13T01:27:00;26.55;;;15.50;;
64932;SDS011;51446;53.850;10.662;2022-11-13T01:29:25;24.05;;;14.63;;
64932;SDS011;51446;53.850;10.662;2022-11-13T01:31:50;25.95;;;14.70;;
64932;SDS011;51446;53.850;10.662;2022-11-13T01:34:16;27.55;;;14.65;;
64932;SDS011;51446;53.850;10.662;2022-11-13T01:36:42;22.30;;;14.77;;
64932;SDS011;51446;53.850;10.662;2022-11-13T01:39:08;21.17;;;14.13;;
64932;SDS011;51446;53.850;10.662;2022-11-13T01:41:35;24.15;;;15.50;;
64932;SDS011;51446;53.850;10.662;2022-11-13T01:44:00;21.37;;;14.43;;
64932;SDS011;51446;53.850;10.662;2022-11-13T01:46:30;24.20;;;15.10;;
64932;SDS011;51446;53.850;10.662;2022-11-13T01:48:58;25.27;;;15.40;;
64932;SDS011;51446;53.850;10.662;2022-11-13T01:51:29;21.33;;;14.20;;
64932;SDS011;51446;53.850;10.662;2022-11-13T01:53:58;18.52;;;13.43;;
64932;SDS011;51446;53.850;10.662;2022-11-13T01:56:26;23.08;;;14.57;;
64932;SDS011;51446;53.850;10.662;2022-11-13T01:58:54;23.57;;;14.70;;
64932;SDS011;51446;53.850;10.662;2022-11-13T02:01:25;24.55;;;15.77;;
64932;SDS011;51446;53.850;10.662;2022-11-13T02:03:51;23.93;;;15.43;;
64932;SDS011;51446;53.850;10.662;2022-11-13T02:06:16;25.00;;;15.17;;
64932;SDS011;51446;53.850;10.662;2022-11-13T02:08:43;25.17;;;15.40;;
64932;SDS011;51446;53.850;10.662;2022-11-13T02:11:09;24.48;;;14.93;;
64932;SDS011;51446;53.850;10.662;2022-11-13T02:13:35;23.83;;;14.80;;
64932;SDS011;51446;53.850;10.662;2022-11-13T02:16:01;25.58;;;15.13;;
64932;SDS011;51446;53.850;10.662;2022-11-13T02:18:27;25.55;;;15.07;;
64932;SDS011;51446;53.850;10.662;2022-11-13T02:20:57;24.10;;;14.52;;
64932;SDS011;51446;53.850;10.662;2022-11-13T02:23:45;24.43;;;13.90;;
64932;SDS011;51446;53.850;10.662;2022-11-13T02:26:33;21.48;;;14.50;;
64932;SDS011;51446;53.850;10.662;2022-11-13T02:28:59;24.83;;;14.70;;
64932;SDS011;51446;53.850;10.662;2022-11-13T02:31:25;25.70;;;15.20;;
64932;SDS011;51446;53.850;10.662;2022-11-13T02:33:50;20.77;;;14.37;;
64932;SDS011;51446;53.850;10.662;2022-11-13T02:36:15;26.13;;;15.37;;
64932;SDS011;51446;53.850;10.662;2022-11-13T02:38:44;23.33;;;14.48;;
64932;SDS011;51446;53.850;10.662;2022-11-13T02:41:09;22.85;;;13.80;;
64932;SDS011;51446;53.850;10.662;2022-11-13T02:43:35;18.93;;;13.37;;
64932;SDS011;51446;53.850;10.662;2022-11-13T02:46:00;23.23;;;12.73;;
64932;SDS011;51446;53.850;10.662;2022-11-13T02:48:25;23.67;;;14.23;;
64932;SDS011;51446;53.850;10.662;2022-11-13T02:50:50;23.60;;;13.87;;
64932;SDS011;51446;53.850;10.662;2022-11-13T02:53:16;22.90;;;14.20;;
64932;SDS011;51446;53.850;10.662;2022-11-13T02:55:41;24.00;;;15.30;;
64932;SDS011;51446;53.850;10.662;2022-11-13T02:58:06;25.97;;;15.33;;
64932;SDS011;51446;53.850;10.662;2022-11-13T03:00:32;23.60;;;13.77;;
64932;SDS011;51446;53.850;10.662;2022-11-13T03:02:57;28.33;;;15.20;;
64932;SDS011;51446;53.850;10.662;2022-11-13T03:05:22;26.37;;;15.53;;
64932;SDS011;51446;53.850;10.662;2022-11-13T03:07:47;26.80;;;15.07;;
64932;SDS011;51446;53.850;10.662;2022-11-13T03:10:13;27.87;;;15.83;;
64932;SDS011;51446;53.850;10.662;2022-11-13T03:12:38;26.88;;;14.55;;
64932;SDS011;51446;53.850;10.662;2022-11-13T03:15:05;27.27;;;14.47;;
64932;SDS011;51446;53.850;10.662;2022-11-13T03:17:31;24.38;;;15.23;;
64932;SDS011;51446;53.850;10.662;2022-11-13T03:19:57;27.38;;;14.68;;
64932;SDS011;51446;53.850;10.662;2022-11-13T03:22:22;28.53;;;16.43;;
64932;SDS011;51446;53.850;10.662;2022-11-13T03:24:47;26.47;;;16.07;;
64932;SDS011;51446;53.850;10.662;2022-11-13T03:27:12;25.10;;;15.97;;
64932;SDS011;51446;53.850;10.662;2022-11-13T03:29:38;30.27;;;15.53;;
64932;SDS011;51446;53.850;10.662;2022-11-13T03:32:03;26.40;;;14.70;;
64932;SDS011;51446;53.850;10.662;2022-11-13T03:34:28;23.10;;;14.37;;
64932;SDS011;51446;53.850;10.662;2022-11-13T03:36:54;27.93;;;14.83;;
64932;SDS011;51446;53.850;10.662;2022-11-13T03:39:19;21.30;;;15.17;;
64932;SDS011;51446;53.850;10.662;2022-11-13T03:41:44;27.60;;;15.03;;
64932;SDS011;51446;53.850;10.662;2022-11-13T03:44:10;25.20;;;15.23;;
64932;SDS011;51446;53.850;10.662;2022-11-13T03:46:35;27.43;;;15.50;;
64932;SDS011;51446;53.850;10.662;2022-11-13T03:49:00;29.00;;;15.53;;
64932;SDS011;51446;53.850;10.662;2022-11-13T03:51:25;27.43;;;16.07;;
64932;SDS011;51446;53.850;10.662;2022-11-13T03:53:51;32.43;;;15.67;;
64932;SDS011;51446;53.850;10.662;2022-11-13T03:56:16;31.63;;;17.30;;
64932;SDS011;51446;53.850;10.662;2022-11-13T03:58:41;27.83;;;16.67;;
64932;SDS011;51446;53.850;10.662;2022-11-13T04:01:06;32.00;;;16.15;;
64932;SDS011;51446;53.850;10.662;2022-11-13T04:03:32;28.48;;;14.85;;
64932;SDS011;51446;53.850;10.662;2022-11-13T04:05:57;26.07;;;15.43;;
64932;SDS011;51446;53.850;10.662;2022-11-13T04:08:22;29.73;;;15.97;;
64932;SDS011;51446;53.850;10.662;2022-11-13T04:10:47;30.77;;;15.77;;
64932;SDS011;51446;53.850;10.662;2022-11-13T04:13:13;28.67;;;15.63;;
64932;SDS011;51446;53.850;10.662;2022-11-13T04:15:38;29.80;;;16.17;;
64932;SDS011;51446;53.850;10.662;2022-11-13T04:18:03;29.70;;;16.17;;
64932;SDS011;51446;53.850;10.662;2022-11-13T04:20:29;30.20;;;16.37;;
64932;SDS011;51446;53.850;10.662;2022-11-13T04:22:55;32.13;;;17.03;;
64932;SDS011;51446;53.850;10.662;2022-11-13T04:25:20;28.90;;;17.15;;
64932;SDS011;51446;53.850;10.662;2022-11-13T04:27:47;28.97;;;16.10;;
64932;SDS011;51446;53.850;10.662;2022-11-13T04:30:13;26.88;;;16.40;;
64932;SDS011;51446;53.850;10.662;2022-11-13T04:32:39;30.97;;;15.60;;
64932;SDS011;51446;53.850;10.662;2022-11-13T04:35:04;28.33;;;15.67;;
64932;SDS011;51446;53.850;10.662;2022-11-13T04:37:30;27.63;;;15.32;;
64932;SDS011;51446;53.850;10.662;2022-11-13T04:39:55;34.10;;;16.13;;
64932;SDS011;51446;53.850;10.662;2022-11-13T04:42:20;28.80;;;16.03;;
64932;SDS011;51446;53.850;10.662;2022-11-13T04:45:04;25.05;;;14.55;;
64932;SDS011;51446;53.850;10.662;2022-11-13T04:47:30;27.90;;;15.67;;
64932;SDS011;51446;53.850;10.662;2022-11-13T04:49:55;27.30;;;14.87;;
64932;SDS011;51446;53.850;10.662;2022-11-13T04:52:20;25.53;;;14.63;;
64932;SDS011;51446;53.850;10.662;2022-11-13T04:54:45;27.33;;;15.13;;
64932;SDS011;51446;53.850;10.662;2022-11-13T04:57:11;23.30;;;15.07;;
64932;SDS011;51446;53.850;10.662;2022-11-13T04:59:36;25.23;;;14.52;;
64932;SDS011;51446;53.850;10.662;2022-11-13T05:02:01;27.08;;;15.68;;
64932;SDS011;51446;53.850;10.662;2022-11-13T05:04:27;29.07;;;15.93;;
64932;SDS011;51446;53.850;10.662;2022-11-13T05:06:52;26.87;;;15.90;;
64932;SDS011;51446;53.850;10.662;2022-11-13T05:09:18;26.47;;;15.37;;
64932;SDS011;51446;53.850;10.662;2022-11-13T05:11:43;25.58;;;14.60;;
64932;SDS011;51446;53.850;10.662;2022-11-13T05:14:10;22.93;;;14.40;;
64932;SDS011;51446;53.850;10.662;2022-11-13T05:16:36;24.67;;;14.37;;
64932;SDS011;51446;53.850;10.662;2022-11-13T05:19:01;27.50;;;15.53;;
64932;SDS011;51446;53.850;10.662;2022-11-13T05:21:31;25.67;;;14.18;;
64932;SDS011;51446;53.850;10.662;2022-11-13T05:23:57;20.92;;;13.70;;
64932;SDS011;51446;53.850;10.662;2022-11-13T05:26:22;25.53;;;14.47;;
64932;SDS011;51446;53.850;10.662;2022-11-13T05:28:47;27.37;;;14.57;;
64932;SDS011;51446;53.850;10.662;2022-11-13T05:31:14;28.40;;;14.90;;
64932;SDS011;51446;53.850;10.662;2022-11-13T05:33:40;27.42;;;14.43;;
64932;SDS011;51446;53.850;10.662;2022-11-13T05:36:08;25.00;;;15.43;;
64932;SDS011;51446;53.850;10.662;2022-11-13T05:38:35;27.00;;;15.33;;
64932;SDS011;51446;53.850;10.662;2022-11-13T05:41:05;27.60;;;15.57;;
64932;SDS011;51446;53.850;10.662;2022-11-13T05:43:32;30.90;;;16.05;;
64932;SDS011;51446;53.850;10.662;2022-11-13T05:46:02;33.00;;;16.90;;
64932;SDS011;51446;53.850;10.662;2022-11-13T05:48:29;28.13;;;15.20;;
64932;SDS011;51446;53.850;10.662;2022-11-13T05:53:28;30.17;;;15.32;;
64932;SDS011;51446;53.850;10.662;2022-11-13T05:55:53;24.92;;;15.75;;
64932;SDS011;51446;53.850;10.662;2022-11-13T05:58:18;24.10;;;14.33;;
64932;SDS011;51446;53.850;10.662;2022-11-13T06:00:45;29.73;;;15.10;;
64932;SDS011;51446;53.850;10.662;2022-11-13T06:03:10;28.57;;;16.17;;
64932;SDS011;51446;53.850;10.662;2022-11-13T06:05:35;30.48;;;15.55;;
64932;SDS011;51446;53.850;10.662;2022-11-13T06:08:01;28.47;;;16.53;;
64932;SDS011;51446;53.850;10.662;2022-11-13T06:10:26;26.27;;;15.07;;
64932;SDS011;51446;53.850;10.662;2022-11-13T06:12:53;28.77;;;15.73;;
64932;SDS011;51446;53.850;10.662;2022-11-13T06:15:18;26.90;;;15.73;;
64932;SDS011;51446;53.850;10.662;2022-11-13T06:17:44;26.88;;;15.15;;
64932;SDS011;51446;53.850;10.662;2022-11-13T06:20:10;29.65;;;14.88;;
64932;SDS011;51446;53.850;10.662;2022-11-13T06:22:35;31.57;;;16.07;;
64932;SDS011;51446;53.850;10.662;2022-11-13T06:25:00;28.53;;;15.77;;
64932;SDS011;51446;53.850;10.662;2022-11-13T06:27:26;30.40;;;16.20;;
64932;SDS011;51446;53.850;10.662;2022-11-13T06:29:52;31.23;;;16.58;;
64932;SDS011;51446;53.850;10.662;2022-11-13T06:32:17;30.37;;;15.17;;
64932;SDS011;51446;53.850;10.662;2022-11-13T06:34:42;30.33;;;16.27;;
64932;SDS011;51446;53.850;10.662;2022-11-13T06:37:07;26.77;;;15.93;;
64932;SDS011;51446;53.850;10.662;2022-11-13T06:39:33;29.40;;;15.87;;
64932;SDS011;51446;53.850;10.662;2022-11-13T06:41:58;26.97;;;15.60;;
64932;SDS011;51446;53.850;10.662;2022-11-13T06:44:23;27.73;;;14.83;;
64932;SDS011;51446;53.850;10.662;2022-11-13T06:46:48;27.00;;;15.90;;
64932;SDS011;51446;53.850;10.662;2022-11-13T06:49:14;24.20;;;13.73;;
64932;SDS011;51446;53.850;10.662;2022-11-13T06:51:39;31.23;;;15.93;;
64932;SDS011;51446;53.850;10.662;2022-11-13T06:54:05;28.73;;;15.93;;
64932;SDS011;51446;53.850;10.662;2022-11-13T06:56:30;30.27;;;16.50;;
64932;SDS011;51446;53.850;10.662;2022-11-13T06:58:55;30.40;;;17.17;;
64932;SDS011;51446;53.850;10.662;2022-11-13T07:01:21;26.90;;;15.87;;
64932;SDS011;51446;53.850;10.662;2022-11-13T07:03:48;31.45;;;16.70;;
64932;SDS011;51446;53.850;10.662;2022-11-13T07:06:15;32.77;;;16.93;;
64932;SDS011;51446;53.850;10.662;2022-11-13T07:08:42;23.92;;;15.40;;
64932;SDS011;51446;53.850;10.662;2022-11-13T07:11:09;25.33;;;15.52;;
64932;SDS011;51446;53.850;10.662;2022-11-13T07:13:36;29.15;;;15.75;;
64932;SDS011;51446;53.850;10.662;2022-11-13T07:16:03;26.93;;;14.83;;
64932;SDS011;51446;53.850;10.662;2022-11-13T07:18:30;31.65;;;15.57;;
64932;SDS011;51446;53.850;10.662;2022-11-13T07:20:56;25.50;;;14.90;;
64932;SDS011;51446;53.850;10.662;2022-11-13T07:23:22;25.08;;;14.10;;
64932;SDS011;51446;53.850;10.662;2022-11-13T07:25:47;21.47;;;12.90;;
64932;SDS011;51446;53.850;10.662;2022-11-13T07:28:12;20.23;;;12.40;;
64932;SDS011;51446;53.850;10.662;2022-11-13T07:30:38;21.93;;;13.70;;
64932;SDS011;51446;53.850;10.662;2022-11-13T07:33:03;23.57;;;13.30;;
64932;SDS011;51446;53.850;10.662;2022-11-13T07:35:29;19.65;;;12.82;;
64932;SDS011;51446;53.850;10.662;2022-11-13T07:37:55;21.37;;;13.10;;
64932;SDS011;51446;53.850;10.662;2022-11-13T07:40:21;18.63;;;12.88;;
64932;SDS011;51446;53.850;10.662;2022-11-13T07:42:46;19.48;;;12.75;;
64932;SDS011;51446;53.850;10.662;2022-11-13T07:45:12;20.40;;;12.80;;
64932;SDS011;51446;53.850;10.662;2022-11-13T07:47:37;22.20;;;13.02;;
64932;SDS011;51446;53.850;10.662;2022-11-13T07:50:03;23.40;;;13.10;;
64932;SDS011;51446;53.850;10.662;2022-11-13T07:52:28;25.40;;;14.10;;
64932;SDS011;51446;53.850;10.662;2022-11-13T07:54:53;20.75;;;13.55;;
64932;SDS011;51446;53.850;10.662;2022-11-13T07:57:19;21.65;;;14.10;;
64932;SDS011;51446;53.850;10.662;2022-11-13T07:59:46;22.33;;;14.40;;
64932;SDS011;51446;53.850;10.662;2022-11-13T08:02:13;24.63;;;14.77;;
64932;SDS011;51446;53.850;10.662;2022-11-13T08:04:39;27.20;;;15.48;;
64932;SDS011;51446;53.850;10.662;2022-11-13T08:07:05;27.20;;;14.87;;
64932;SDS011;51446;53.850;10.662;2022-11-13T08:09:30;29.83;;;14.90;;
64932;SDS011;51446;53.850;10.662;2022-11-13T08:11:55;26.63;;;16.03;;
64932;SDS011;51446;53.850;10.662;2022-11-13T08:14:20;29.27;;;15.90;;
64932;SDS011;51446;53.850;10.662;2022-11-13T08:16:46;26.60;;;15.63;;
64932;SDS011;51446;53.850;10.662;2022-11-13T08:19:11;28.80;;;15.17;;
64932;SDS011;51446;53.850;10.662;2022-11-13T08:21:36;28.47;;;15.50;;
64932;SDS011;51446;53.850;10.662;2022-11-13T08:24:01;24.57;;;15.90;;
64932;SDS011;51446;53.850;10.662;2022-11-13T08:26:27;30.10;;;16.17;;
64932;SDS011;51446;53.850;10.662;2022-11-13T08:28:52;28.37;;;16.63;;
64932;SDS011;51446;53.850;10.662;2022-11-13T08:31:17;33.27;;;14.80;;
64932;SDS011;51446;53.850;10.662;2022-11-13T08:33:43;28.17;;;15.40;;
64932;SDS011;51446;53.850;10.662;2022-11-13T08:36:08;31.25;;;16.83;;
64932;SDS011;51446;53.850;10.662;2022-11-13T08:38:34;31.10;;;16.77;;
64932;SDS011;51446;53.850;10.662;2022-11-13T08:41:00;26.77;;;15.73;;
64932;SDS011;51446;53.850;10.662;2022-11-13T08:43:27;26.33;;;14.93;;
64932;SDS011;51446;53.850;10.662;2022-11-13T08:45:52;31.65;;;16.20;;
64932;SDS011;51446;53.850;10.662;2022-11-13T08:48:18;34.43;;;15.37;;
64932;SDS011;51446;53.850;10.662;2022-11-13T08:50:43;31.40;;;17.10;;
64932;SDS011;51446;53.850;10.662;2022-11-13T08:53:09;28.45;;;16.23;;
64932;SDS011;51446;53.850;10.662;2022-11-13T08:55:35;31.15;;;17.25;;
64932;SDS011;51446;53.850;10.662;2022-11-13T08:58:01;35.07;;;15.13;;
64932;SDS011;51446;53.850;10.662;2022-11-13T09:00:27;28.63;;;15.68;;
64932;SDS011;51446;53.850;10.662;2022-11-13T09:02:55;33.38;;;15.82;;
64932;SDS011;51446;53.850;10.662;2022-11-13T09:05:22;28.00;;;16.27;;
64932;SDS011;51446;53.850;10.662;2022-11-13T09:07:48;31.30;;;15.63;;
64932;SDS011;51446;53.850;10.662;2022-11-13T09:10:13;34.05;;;15.55;;
64932;SDS011;51446;53.850;10.662;2022-11-13T09:12:40;33.63;;;16.48;;
64932;SDS011;51446;53.850;10.662;2022-11-13T09:15:05;27.73;;;14.83;;
64932;SDS011;51446;53.850;10.662;2022-11-13T09:17:30;32.10;;;15.83;;
64932;SDS011;51446;53.850;10.662;2022-11-13T09:19:56;35.22;;;16.75;;
64932;SDS011;51446;53.850;10.662;2022-11-13T09:22:21;25.13;;;14.47;;
64932;SDS011;51446;53.850;10.662;2022-11-13T09:24:47;26.93;;;14.53;;
64932;SDS011;51446;53.850;10.662;2022-11-13T09:27:13;34.87;;;16.27;;
64932;SDS011;51446;53.850;10.662;2022-11-13T09:29:38;37.13;;;16.42;;
64932;SDS011;51446;53.850;10.662;2022-11-13T09:32:03;35.90;;;15.57;;
64932;SDS011;51446;53.850;10.662;2022-11-13T09:34:29;30.33;;;15.10;;
64932;SDS011;51446;53.850;10.662;2022-11-13T09:36:54;31.60;;;15.00;;
64932;SDS011;51446;53.850;10.662;2022-11-13T09:39:19;32.17;;;16.43;;
64932;SDS011;51446;53.850;10.662;2022-11-13T09:44:46;35.47;;;16.17;;
64932;SDS011;51446;53.850;10.662;2022-11-13T09:47:29;38.08;;;16.90;;
64932;SDS011;51446;53.850;10.662;2022-11-13T09:50:39;32.75;;;17.20;;
64932;SDS011;51446;53.850;10.662;2022-11-13T09:52:45;33.17;;;15.93;;
64932;SDS011;51446;53.850;10.662;2022-11-13T09:55:12;36.75;;;15.88;;
64932;SDS011;51446;53.850;10.662;2022-11-13T09:57:41;29.90;;;15.75;;
64932;SDS011;51446;53.850;10.662;2022-11-13T10:00:16;32.13;;;15.77;;
64932;SDS011;51446;53.850;10.662;2022-11-13T10:05:31;31.77;;;15.60;;
64932;SDS011;51446;53.850;10.662;2022-11-13T10:13:33;32.00;;;15.10;;
64932;SDS011;51446;53.850;10.662;2022-11-13T10:16:20;39.72;;;17.23;;
64932;SDS011;51446;53.850;10.662;2022-11-13T10:18:56;33.90;;;16.88;;
64932;SDS011;51446;53.850;10.662;2022-11-13T10:21:33;31.55;;;15.43;;
64932;SDS011;51446;53.850;10.662;2022-11-13T10:24:04;35.33;;;16.58;;
64932;SDS011;51446;53.850;10.662;2022-11-13T10:26:39;33.40;;;16.87;;
64932;SDS011;51446;53.850;10.662;2022-11-13T10:29:14;37.42;;;16.27;;
64932;SDS011;51446;53.850;10.662;2022-11-13T10:31:45;33.83;;;17.13;;
64932;SDS011;51446;53.850;10.662;2022-11-13T10:34:15;35.20;;;16.90;;
64932;SDS011;51446;53.850;10.662;2022-11-13T10:39:19;34.58;;;17.75;;
64932;SDS011;51446;53.850;10.662;2022-11-13T10:41:49;38.87;;;17.37;;
64932;SDS011;51446;53.850;10.662;2022-11-13T10:47:03;37.45;;;18.15;;
64932;SDS011;51446;53.850;10.662;2022-11-13T10:49:29;36.88;;;17.17;;
64932;SDS011;51446;53.850;10.662;2022-11-13T10:51:55;35.70;;;17.87;;
64932;SDS011;51446;53.850;10.662;2022-11-13T10:54:29;40.60;;;18.65;;
64932;SDS011;51446;53.850;10.662;2022-11-13T10:56:56;40.08;;;19.02;;
64932;SDS011;51446;53.850;10.662;2022-11-13T10:59:40;35.73;;;18.17;;
64932;SDS011;51446;53.850;10.662;2022-11-13T11:02:18;42.10;;;20.88;;
64932;SDS011;51446;53.850;10.662;2022-11-13T11:04:45;41.25;;;19.50;;
64932;SDS011;51446;53.850;10.662;2022-11-13T11:07:18;39.15;;;19.45;;
64932;SDS011;51446;53.850;10.662;2022-11-13T11:09:46;36.47;;;18.63;;
64932;SDS011;51446;53.850;10.662;2022-11-13T11:12:19;40.78;;;18.98;;
64932;SDS011;51446;53.850;10.662;2022-11-13T11:22:29;34.65;;;18.48;;
64932;SDS011;51446;53.850;10.662;2022-11-13T11:25:03;35.13;;;18.73;;
64932;SDS011;51446;53.850;10.662;2022-11-13T11:27:35;33.42;;;18.95;;
64932;SDS011;51446;53.850;10.662;2022-11-13T11:30:11;34.67;;;19.55;;
64932;SDS011;51446;53.850;10.662;2022-11-13T11:32:42;33.10;;;19.05;;
64932;SDS011;51446;53.850;10.662;2022-11-13T11:35:23;35.80;;;18.50;;
64932;SDS011;51446;53.850;10.662;2022-11-13T11:38:44;32.50;;;18.20;;
64932;SDS011;51446;53.850;10.662;2022-11-13T11:41:10;33.53;;;19.25;;
64932;SDS011;51446;53.850;10.662;2022-11-13T11:43:47;35.30;;;19.73;;
64932;SDS011;51446;53.850;10.662;2022-11-13T11:46:26;32.45;;;18.52;;
64932;SDS011;51446;53.850;10.662;2022-11-13T11:48:53;31.88;;;19.40;;
64932;SDS011;51446;53.850;10.662;2022-11-13T11:51:41;31.63;;;19.88;;
64932;SDS011;51446;53.850;10.662;2022-11-13T12:00:16;35.80;;;19.95;;
64932;SDS011;51446;53.850;10.662;2022-11-13T12:02:50;35.78;;;20.73;;
64932;SDS011;51446;53.850;10.662;2022-11-13T12:05:28;32.92;;;19.45;;
64932;SDS011;51446;53.850;10.662;2022-11-13T12:10:58;38.25;;;21.23;;
64932;SDS011;51446;53.850;10.662;2022-11-13T12:13:31;34.20;;;20.88;;
64932;SDS011;51446;53.850;10.662;2022-11-13T12:16:45;32.65;;;19.88;;
64932;SDS011;51446;53.850;10.662;2022-11-13T12:19:15;36.17;;;19.65;;
64932;SDS011;51446;53.850;10.662;2022-11-13T12:21:58;30.35;;;18.77;;
64932;SDS011;51446;53.850;10.662;2022-11-13T12:34:52;25.65;;;16.92;;
64932;SDS011;51446;53.850;10.662;2022-11-13T12:37:34;27.25;;;16.90;;
64932;SDS011;51446;53.850;10.662;2022-11-13T12:40:04;30.05;;;16.95;;
64932;SDS011;51446;53.850;10.662;2022-11-13T12:42:42;24.92;;;15.80;;
64932;SDS011;51446;53.850;10.662;2022-11-13T12:45:22;25.67;;;16.45;;
64932;SDS011;51446;53.850;10.662;2022-11-13T12:47:49;27.55;;;16.63;;
64932;SDS011;51446;53.850;10.662;2022-11-13T12:50:21;24.73;;;16.35;;
64932;SDS011;51446;53.850;10.662;2022-11-13T12:53:05;24.92;;;15.75;;
64932;SDS011;51446;53.850;10.662;2022-11-13T12:55:36;23.95;;;15.65;;
64932;SDS011;51446;53.850;10.662;2022-11-13T12:58:50;22.83;;;15.05;;
64932;SDS011;51446;53.850;10.662;2022-11-13T13:01:02;22.30;;;14.40;;
64932;SDS011;51446;53.850;10.662;2022-11-13T13:06:24;23.10;;;16.02;;
64932;SDS011;51446;53.850;10.662;2022-11-13T13:09:16;24.63;;;16.05;;
64932;SDS011;51446;53.850;10.662;2022-11-13T13:12:31;22.42;;;15.27;;
64932;SDS011;51446;53.850;10.662;2022-11-13T13:15:11;24.00;;;13.82;;
64932;SDS011;51446;53.850;10.662;2022-11-13T13:17:59;22.05;;;14.02;;
64932;SDS011;51446;53.850;10.662;2022-11-13T13:20:32;20.48;;;13.30;;
64932;SDS011;51446;53.850;10.662;2022-11-13T13:22:59;21.20;;;13.18;;
64932;SDS011;51446;53.850;10.662;2022-11-13T13:25:29;19.25;;;12.82;;
64932;SDS011;51446;53.850;10.662;2022-11-13T13:28:00;20.50;;;13.05;;
64932;SDS011;51446;53.850;10.662;2022-11-13T13:30:28;22.73;;;13.15;;
64932;SDS011;51446;53.850;10.662;2022-11-13T13:38:21;21.17;;;12.98;;
64932;SDS011;51446;53.850;10.662;2022-11-13T13:46:16;20.90;;;12.73;;
64932;SDS011;51446;53.850;10.662;2022-11-13T13:48:46;20.27;;;13.23;;
64932;SDS011;51446;53.850;10.662;2022-11-13T13:53:50;24.02;;;14.13;;
64932;SDS011;51446;53.850;10.662;2022-11-13T13:56:16;21.80;;;14.10;;
64932;SDS011;51446;53.850;10.662;2022-11-13T13:58:42;24.33;;;14.38;;
64932;SDS011;51446;53.850;10.662;2022-11-13T14:01:11;23.15;;;13.75;;
64932;SDS011;51446;53.850;10.662;2022-11-13T14:03:39;21.83;;;14.13;;
64932;SDS011;51446;53.850;10.662;2022-11-13T14:06:18;23.25;;;14.98;;
64932;SDS011;51446;53.850;10.662;2022-11-13T14:08:45;24.53;;;14.30;;
64932;SDS011;51446;53.850;10.662;2022-11-13T14:11:19;24.10;;;14.40;;
64932;SDS011;51446;53.850;10.662;2022-11-13T14:13:50;22.10;;;13.68;;
64932;SDS011;51446;53.850;10.662;2022-11-13T14:16:15;23.50;;;14.03;;
64932;SDS011;51446;53.850;10.662;2022-11-13T14:18:41;20.47;;;13.67;;
64932;SDS011;51446;53.850;10.662;2022-11-13T14:21:09;22.20;;;13.63;;
64932;SDS011;51446;53.850;10.662;2022-11-13T14:23:39;21.88;;;13.75;;
64932;SDS011;51446;53.850;10.662;2022-11-13T14:26:10;22.60;;;14.50;;
64932;SDS011;51446;53.850;10.662;2022-11-13T14:28:50;24.35;;;13.77;;
64932;SDS011;51446;53.850;10.662;2022-11-13T14:31:23;21.77;;;13.23;;
64932;SDS011;51446;53.850;10.662;2022-11-13T14:33:51;23.85;;;13.43;;
64932;SDS011;51446;53.850;10.662;2022-11-13T14:36:25;22.98;;;13.65;;
64932;SDS011;51446;53.850;10.662;2022-11-13T14:38:53;20.70;;;12.68;;
64932;SDS011;51446;53.850;10.662;2022-11-13T14:41:33;21.13;;;12.98;;
64932;SDS011;51446;53.850;10.662;2022-11-13T14:44:02;21.85;;;12.50;;
64932;SDS011;51446;53.850;10.662;2022-11-13T14:46:33;17.30;;;12.43;;
64932;SDS011;51446;53.850;10.662;2022-11-13T14:49:09;18.13;;;11.80;;
64932;SDS011;51446;53.850;10.662;2022-11-13T14:51:38;19.88;;;11.52;;
64932;SDS011;51446;53.850;10.662;2022-11-13T14:54:04;18.77;;;11.52;;
64932;SDS011;51446;53.850;10.662;2022-11-13T14:56:32;19.48;;;13.13;;
64932;SDS011;51446;53.850;10.662;2022-11-13T14:59:06;33.33;;;18.55;;
64932;SDS011;51446;53.850;10.662;2022-11-13T15:01:37;21.63;;;12.30;;
64932;SDS011;51446;53.850;10.662;2022-11-13T15:04:03;19.45;;;11.32;;
64932;SDS011;51446;53.850;10.662;2022-11-13T15:06:38;18.38;;;10.98;;
64932;SDS011;51446;53.850;10.662;2022-11-13T15:09:11;20.40;;;11.85;;
64932;SDS011;51446;53.850;10.662;2022-11-13T15:11:38;17.92;;;11.32;;
64932;SDS011;51446;53.850;10.662;2022-11-13T15:14:14;19.42;;;10.35;;
64932;SDS011;51446;53.850;10.662;2022-11-13T15:16:40;18.05;;;10.50;;
64932;SDS011;51446;53.850;10.662;2022-11-13T15:19:28;18.35;;;11.13;;